sensor_id;sensor_type;location;lat;lon;timestamp;P1;durP1;ratioP1;P2;durP2;ratioP2
20810;SDS011;10566;52.928;10.522;2022-07-29T00:00:11;4.57;;;1.33;;
20810;SDS011;10566;52.928;10.522;2022-07-29T00:02:37;5.13;;;1.50;;
20810;SDS011;10566;52.928;10.522;2022-07-29T00:05:03;5.07;;;1.48;;
20810;SDS011;10566;52.928;10.522;2022-07-29T00:07:29;7.07;;;1.67;;
20810;SDS011;10566;52.928;10.522;2022-07-29T00:09:55;6.63;;;1.55;;
20810;SDS011;10566;52.928;10.522;2022-07-29T00:12:21;8.15;;;1.50;;
20810;SDS011;10566;52.928;10.522;2022-07-29T00:14:48;6.43;;;1.50;;
20810;SDS011;10566;52.928;10.522;2022-07-29T00:17:14;7.97;;;1.50;;
20810;SDS011;10566;52.928;10.522;2022-07-29T00:19:39;4.22;;;1.20;;
20810;SDS011;10566;52.928;10.522;2022-07-29T00:22:05;7.78;;;1.63;;
20810;SDS011;10566;52.928;10.522;2022-07-29T00:24:31;9.27;;;1.70;;
20810;SDS011;10566;52.928;10.522;2022-07-29T00:26:57;6.85;;;1.40;;
20810;SDS011;10566;52.928;10.522;2022-07-29T00:29:22;3.53;;;1.30;;
20810;SDS011;10566;52.928;10.522;2022-07-29T00:31:48;5.72;;;1.73;;
20810;SDS011;10566;52.928;10.522;2022-07-29T00:34:13;5.90;;;1.67;;
20810;SDS011;10566;52.928;10.522;2022-07-29T00:36:58;6.03;;;1.33;;
20810;SDS011;10566;52.928;10.522;2022-07-29T00:39:23;7.43;;;1.50;;
20810;SDS011;10566;52.928;10.522;2022-07-29T00:41:49;5.10;;;1.90;;
20810;SDS011;10566;52.928;10.522;2022-07-29T00:44:15;5.77;;;1.53;;
20810;SDS011;10566;52.928;10.522;2022-07-29T00:46:41;6.53;;;1.60;;
20810;SDS011;10566;52.928;10.522;2022-07-29T00:49:06;6.53;;;1.40;;
20810;SDS011;10566;52.928;10.522;2022-07-29T00:51:32;6.83;;;1.50;;
20810;SDS011;10566;52.928;10.522;2022-07-29T00:54:01;3.87;;;1.47;;
20810;SDS011;10566;52.928;10.522;2022-07-29T00:56:27;10.13;;;1.53;;
20810;SDS011;10566;52.928;10.522;2022-07-29T00:58:56;4.03;;;1.53;;
20810;SDS011;10566;52.928;10.522;2022-07-29T01:01:22;6.40;;;2.13;;
20810;SDS011;10566;52.928;10.522;2022-07-29T01:03:48;6.97;;;1.70;;
20810;SDS011;10566;52.928;10.522;2022-07-29T01:06:17;6.63;;;1.40;;
20810;SDS011;10566;52.928;10.522;2022-07-29T01:08:44;4.17;;;1.37;;
20810;SDS011;10566;52.928;10.522;2022-07-29T01:11:12;7.90;;;1.80;;
20810;SDS011;10566;52.928;10.522;2022-07-29T01:13:38;5.53;;;1.80;;
20810;SDS011;10566;52.928;10.522;2022-07-29T01:16:39;6.33;;;1.80;;
20810;SDS011;10566;52.928;10.522;2022-07-29T01:19:13;5.17;;;1.60;;
20810;SDS011;10566;52.928;10.522;2022-07-29T01:21:50;7.27;;;2.00;;
20810;SDS011;10566;52.928;10.522;2022-07-29T01:27:44;6.10;;;1.50;;
20810;SDS011;10566;52.928;10.522;2022-07-29T01:29:45;5.70;;;1.63;;
20810;SDS011;10566;52.928;10.522;2022-07-29T01:32:19;7.77;;;1.60;;
20810;SDS011;10566;52.928;10.522;2022-07-29T01:37:32;5.67;;;1.43;;
20810;SDS011;10566;52.928;10.522;2022-07-29T01:40:31;8.13;;;1.93;;
20810;SDS011;10566;52.928;10.522;2022-07-29T01:43:06;7.50;;;1.40;;
20810;SDS011;10566;52.928;10.522;2022-07-29T01:45:46;4.67;;;1.50;;
20810;SDS011;10566;52.928;10.522;2022-07-29T01:48:19;6.37;;;1.53;;
20810;SDS011;10566;52.928;10.522;2022-07-29T01:50:55;9.67;;;1.70;;
20810;SDS011;10566;52.928;10.522;2022-07-29T01:53:29;5.70;;;1.67;;
20810;SDS011;10566;52.928;10.522;2022-07-29T01:55:59;7.77;;;1.87;;
20810;SDS011;10566;52.928;10.522;2022-07-29T01:58:26;7.03;;;2.00;;
20810;SDS011;10566;52.928;10.522;2022-07-29T02:00:53;4.53;;;1.70;;
20810;SDS011;10566;52.928;10.522;2022-07-29T02:03:20;7.20;;;1.67;;
20810;SDS011;10566;52.928;10.522;2022-07-29T02:05:47;8.13;;;1.93;;
20810;SDS011;10566;52.928;10.522;2022-07-29T02:08:15;4.50;;;1.77;;
20810;SDS011;10566;52.928;10.522;2022-07-29T02:10:43;5.43;;;1.77;;
20810;SDS011;10566;52.928;10.522;2022-07-29T02:13:11;5.93;;;1.77;;
20810;SDS011;10566;52.928;10.522;2022-07-29T02:15:38;6.67;;;1.57;;
20810;SDS011;10566;52.928;10.522;2022-07-29T02:18:08;9.13;;;2.17;;
20810;SDS011;10566;52.928;10.522;2022-07-29T02:20:37;7.63;;;1.80;;
20810;SDS011;10566;52.928;10.522;2022-07-29T02:23:05;6.57;;;1.70;;
20810;SDS011;10566;52.928;10.522;2022-07-29T02:25:34;4.77;;;1.50;;
20810;SDS011;10566;52.928;10.522;2022-07-29T02:28:00;5.63;;;1.70;;
20810;SDS011;10566;52.928;10.522;2022-07-29T02:30:26;4.73;;;1.60;;
20810;SDS011;10566;52.928;10.522;2022-07-29T02:32:53;6.37;;;1.90;;
20810;SDS011;10566;52.928;10.522;2022-07-29T02:35:21;5.93;;;1.70;;
20810;SDS011;10566;52.928;10.522;2022-07-29T02:37:47;5.90;;;1.73;;
20810;SDS011;10566;52.928;10.522;2022-07-29T02:40:34;5.80;;;2.00;;
20810;SDS011;10566;52.928;10.522;2022-07-29T02:43:02;7.77;;;1.80;;
20810;SDS011;10566;52.928;10.522;2022-07-29T02:45:31;6.33;;;1.97;;
20810;SDS011;10566;52.928;10.522;2022-07-29T02:47:57;6.97;;;2.33;;
20810;SDS011;10566;52.928;10.522;2022-07-29T02:50:30;5.97;;;2.03;;
20810;SDS011;10566;52.928;10.522;2022-07-29T02:53:07;6.47;;;2.10;;
20810;SDS011;10566;52.928;10.522;2022-07-29T02:55:46;6.63;;;2.23;;
20810;SDS011;10566;52.928;10.522;2022-07-29T02:58:27;7.27;;;2.10;;
20810;SDS011;10566;52.928;10.522;2022-07-29T03:00:59;7.77;;;2.20;;
20810;SDS011;10566;52.928;10.522;2022-07-29T03:03:28;10.93;;;2.53;;
20810;SDS011;10566;52.928;10.522;2022-07-29T03:05:57;7.60;;;2.60;;
20810;SDS011;10566;52.928;10.522;2022-07-29T03:08:24;7.07;;;2.20;;
20810;SDS011;10566;52.928;10.522;2022-07-29T03:10:51;6.43;;;2.10;;
20810;SDS011;10566;52.928;10.522;2022-07-29T03:13:18;7.97;;;2.20;;
20810;SDS011;10566;52.928;10.522;2022-07-29T03:15:45;8.57;;;2.17;;
20810;SDS011;10566;52.928;10.522;2022-07-29T03:18:11;6.80;;;2.03;;
20810;SDS011;10566;52.928;10.522;2022-07-29T03:20:38;7.57;;;2.30;;
20810;SDS011;10566;52.928;10.522;2022-07-29T03:23:04;6.43;;;2.53;;
20810;SDS011;10566;52.928;10.522;2022-07-29T03:25:29;7.03;;;2.40;;
20810;SDS011;10566;52.928;10.522;2022-07-29T03:27:55;5.43;;;2.37;;
20810;SDS011;10566;52.928;10.522;2022-07-29T03:30:21;7.30;;;2.33;;
20810;SDS011;10566;52.928;10.522;2022-07-29T03:32:48;8.40;;;2.70;;
20810;SDS011;10566;52.928;10.522;2022-07-29T03:35:14;7.13;;;2.60;;
20810;SDS011;10566;52.928;10.522;2022-07-29T03:37:41;6.40;;;2.60;;
20810;SDS011;10566;52.928;10.522;2022-07-29T03:40:07;6.30;;;2.73;;
20810;SDS011;10566;52.928;10.522;2022-07-29T03:42:35;8.20;;;2.77;;
20810;SDS011;10566;52.928;10.522;2022-07-29T03:45:07;8.67;;;2.90;;
20810;SDS011;10566;52.928;10.522;2022-07-29T03:47:38;11.47;;;2.80;;
20810;SDS011;10566;52.928;10.522;2022-07-29T03:50:12;7.10;;;2.67;;
20810;SDS011;10566;52.928;10.522;2022-07-29T03:52:40;6.73;;;2.60;;
20810;SDS011;10566;52.928;10.522;2022-07-29T03:55:06;7.03;;;2.60;;
20810;SDS011;10566;52.928;10.522;2022-07-29T03:57:33;7.53;;;2.57;;
20810;SDS011;10566;52.928;10.522;2022-07-29T04:00:02;8.60;;;2.73;;
20810;SDS011;10566;52.928;10.522;2022-07-29T04:02:30;7.70;;;2.80;;
20810;SDS011;10566;52.928;10.522;2022-07-29T04:04:57;6.33;;;2.40;;
20810;SDS011;10566;52.928;10.522;2022-07-29T04:07:22;8.60;;;2.47;;
20810;SDS011;10566;52.928;10.522;2022-07-29T04:09:48;5.87;;;2.60;;
20810;SDS011;10566;52.928;10.522;2022-07-29T04:12:14;6.33;;;2.43;;
20810;SDS011;10566;52.928;10.522;2022-07-29T04:14:39;6.33;;;2.43;;
20810;SDS011;10566;52.928;10.522;2022-07-29T04:17:05;5.93;;;3.00;;
20810;SDS011;10566;52.928;10.522;2022-07-29T04:19:31;10.13;;;2.90;;
20810;SDS011;10566;52.928;10.522;2022-07-29T04:21:57;7.00;;;2.53;;
20810;SDS011;10566;52.928;10.522;2022-07-29T04:24:24;11.83;;;3.03;;
20810;SDS011;10566;52.928;10.522;2022-07-29T04:26:50;6.83;;;2.73;;
20810;SDS011;10566;52.928;10.522;2022-07-29T04:29:15;7.30;;;2.70;;
20810;SDS011;10566;52.928;10.522;2022-07-29T04:31:41;8.87;;;2.87;;
20810;SDS011;10566;52.928;10.522;2022-07-29T04:34:07;7.37;;;2.77;;
20810;SDS011;10566;52.928;10.522;2022-07-29T04:36:33;8.57;;;3.00;;
20810;SDS011;10566;52.928;10.522;2022-07-29T04:38:59;6.20;;;2.73;;
20810;SDS011;10566;52.928;10.522;2022-07-29T04:41:26;9.13;;;2.70;;
20810;SDS011;10566;52.928;10.522;2022-07-29T04:43:52;7.97;;;3.00;;
20810;SDS011;10566;52.928;10.522;2022-07-29T04:46:18;9.10;;;2.87;;
20810;SDS011;10566;52.928;10.522;2022-07-29T04:48:45;7.63;;;3.67;;
20810;SDS011;10566;52.928;10.522;2022-07-29T04:51:11;10.57;;;3.57;;
20810;SDS011;10566;52.928;10.522;2022-07-29T04:53:37;9.70;;;3.20;;
20810;SDS011;10566;52.928;10.522;2022-07-29T04:56:03;9.30;;;3.20;;
20810;SDS011;10566;52.928;10.522;2022-07-29T04:58:28;7.43;;;3.00;;
20810;SDS011;10566;52.928;10.522;2022-07-29T05:00:54;9.33;;;3.50;;
20810;SDS011;10566;52.928;10.522;2022-07-29T05:03:20;11.77;;;2.80;;
20810;SDS011;10566;52.928;10.522;2022-07-29T05:05:45;7.73;;;2.80;;
20810;SDS011;10566;52.928;10.522;2022-07-29T05:08:11;7.13;;;2.97;;
20810;SDS011;10566;52.928;10.522;2022-07-29T05:10:36;7.00;;;2.83;;
20810;SDS011;10566;52.928;10.522;2022-07-29T05:13:06;8.77;;;2.70;;
20810;SDS011;10566;52.928;10.522;2022-07-29T05:15:33;6.10;;;3.00;;
20810;SDS011;10566;52.928;10.522;2022-07-29T05:18:00;7.93;;;3.10;;
20810;SDS011;10566;52.928;10.522;2022-07-29T05:20:26;8.53;;;3.67;;
20810;SDS011;10566;52.928;10.522;2022-07-29T05:22:54;8.13;;;3.07;;
20810;SDS011;10566;52.928;10.522;2022-07-29T05:25:20;7.30;;;3.20;;
20810;SDS011;10566;52.928;10.522;2022-07-29T05:27:46;7.17;;;3.00;;
20810;SDS011;10566;52.928;10.522;2022-07-29T05:30:11;9.10;;;3.10;;
20810;SDS011;10566;52.928;10.522;2022-07-29T05:32:37;9.70;;;2.80;;
20810;SDS011;10566;52.928;10.522;2022-07-29T05:35:03;8.30;;;3.00;;
20810;SDS011;10566;52.928;10.522;2022-07-29T05:37:28;6.90;;;2.90;;
20810;SDS011;10566;52.928;10.522;2022-07-29T05:39:54;7.57;;;3.07;;
20810;SDS011;10566;52.928;10.522;2022-07-29T05:42:19;8.00;;;2.70;;
20810;SDS011;10566;52.928;10.522;2022-07-29T05:44:45;8.30;;;2.90;;
20810;SDS011;10566;52.928;10.522;2022-07-29T05:47:12;8.70;;;3.30;;
20810;SDS011;10566;52.928;10.522;2022-07-29T05:49:37;6.90;;;2.70;;
20810;SDS011;10566;52.928;10.522;2022-07-29T05:52:03;8.20;;;3.20;;
20810;SDS011;10566;52.928;10.522;2022-07-29T05:54:29;7.13;;;2.80;;
20810;SDS011;10566;52.928;10.522;2022-07-29T05:56:55;8.02;;;2.90;;
20810;SDS011;10566;52.928;10.522;2022-07-29T05:59:21;8.93;;;2.60;;
20810;SDS011;10566;52.928;10.522;2022-07-29T06:01:46;6.47;;;3.00;;
20810;SDS011;10566;52.928;10.522;2022-07-29T06:04:12;11.73;;;2.90;;
20810;SDS011;10566;52.928;10.522;2022-07-29T06:06:38;7.40;;;3.10;;
20810;SDS011;10566;52.928;10.522;2022-07-29T06:09:03;10.93;;;2.90;;
20810;SDS011;10566;52.928;10.522;2022-07-29T06:11:29;6.68;;;2.85;;
20810;SDS011;10566;52.928;10.522;2022-07-29T06:13:54;8.23;;;2.80;;
20810;SDS011;10566;52.928;10.522;2022-07-29T06:16:20;7.10;;;2.75;;
20810;SDS011;10566;52.928;10.522;2022-07-29T06:18:45;6.65;;;2.60;;
20810;SDS011;10566;52.928;10.522;2022-07-29T06:21:11;6.38;;;2.42;;
20810;SDS011;10566;52.928;10.522;2022-07-29T06:23:37;9.60;;;3.00;;
20810;SDS011;10566;52.928;10.522;2022-07-29T06:26:03;10.32;;;2.90;;
20810;SDS011;10566;52.928;10.522;2022-07-29T06:28:30;7.80;;;2.58;;
20810;SDS011;10566;52.928;10.522;2022-07-29T06:30:57;6.75;;;2.58;;
20810;SDS011;10566;52.928;10.522;2022-07-29T06:33:22;7.93;;;2.45;;
20810;SDS011;10566;52.928;10.522;2022-07-29T06:35:48;8.30;;;3.22;;
20810;SDS011;10566;52.928;10.522;2022-07-29T06:38:14;7.78;;;2.40;;
20810;SDS011;10566;52.928;10.522;2022-07-29T06:40:40;8.35;;;2.53;;
20810;SDS011;10566;52.928;10.522;2022-07-29T06:43:25;7.53;;;2.67;;
20810;SDS011;10566;52.928;10.522;2022-07-29T06:45:51;9.15;;;2.92;;
20810;SDS011;10566;52.928;10.522;2022-07-29T06:48:17;6.88;;;2.50;;
20810;SDS011;10566;52.928;10.522;2022-07-29T06:50:43;8.45;;;2.58;;
20810;SDS011;10566;52.928;10.522;2022-07-29T06:53:08;5.70;;;2.33;;
20810;SDS011;10566;52.928;10.522;2022-07-29T06:55:34;8.60;;;2.53;;
20810;SDS011;10566;52.928;10.522;2022-07-29T06:57:59;9.18;;;2.67;;
20810;SDS011;10566;52.928;10.522;2022-07-29T07:00:25;6.50;;;2.28;;
20810;SDS011;10566;52.928;10.522;2022-07-29T07:02:50;7.45;;;2.58;;
20810;SDS011;10566;52.928;10.522;2022-07-29T07:05:16;9.02;;;2.78;;
20810;SDS011;10566;52.928;10.522;2022-07-29T07:07:41;7.03;;;2.50;;
20810;SDS011;10566;52.928;10.522;2022-07-29T07:10:07;10.57;;;2.80;;
20810;SDS011;10566;52.928;10.522;2022-07-29T07:12:33;7.68;;;2.50;;
20810;SDS011;10566;52.928;10.522;2022-07-29T07:14:58;7.30;;;2.13;;
20810;SDS011;10566;52.928;10.522;2022-07-29T07:17:24;8.68;;;2.28;;
20810;SDS011;10566;52.928;10.522;2022-07-29T07:19:49;7.03;;;2.30;;
20810;SDS011;10566;52.928;10.522;2022-07-29T07:22:15;7.90;;;2.30;;
20810;SDS011;10566;52.928;10.522;2022-07-29T07:24:40;6.20;;;2.30;;
20810;SDS011;10566;52.928;10.522;2022-07-29T07:27:06;7.18;;;2.20;;
20810;SDS011;10566;52.928;10.522;2022-07-29T07:29:31;6.03;;;2.30;;
20810;SDS011;10566;52.928;10.522;2022-07-29T07:31:57;5.00;;;2.42;;
20810;SDS011;10566;52.928;10.522;2022-07-29T07:34:23;9.43;;;2.55;;
20810;SDS011;10566;52.928;10.522;2022-07-29T07:36:48;8.73;;;2.40;;
20810;SDS011;10566;52.928;10.522;2022-07-29T07:39:14;8.57;;;2.55;;
20810;SDS011;10566;52.928;10.522;2022-07-29T07:41:39;7.90;;;2.30;;
20810;SDS011;10566;52.928;10.522;2022-07-29T07:44:05;5.47;;;2.10;;
20810;SDS011;10566;52.928;10.522;2022-07-29T07:46:31;6.43;;;2.28;;
20810;SDS011;10566;52.928;10.522;2022-07-29T07:48:56;6.97;;;2.30;;
20810;SDS011;10566;52.928;10.522;2022-07-29T07:51:22;9.10;;;2.30;;
20810;SDS011;10566;52.928;10.522;2022-07-29T07:53:48;7.88;;;2.30;;
20810;SDS011;10566;52.928;10.522;2022-07-29T07:56:15;10.90;;;2.25;;
20810;SDS011;10566;52.928;10.522;2022-07-29T07:58:41;6.82;;;1.98;;
20810;SDS011;10566;52.928;10.522;2022-07-29T08:01:07;5.93;;;2.10;;
20810;SDS011;10566;52.928;10.522;2022-07-29T08:03:33;8.02;;;2.05;;
20810;SDS011;10566;52.928;10.522;2022-07-29T08:05:59;12.05;;;2.30;;
20810;SDS011;10566;52.928;10.522;2022-07-29T08:08:24;6.15;;;1.85;;
20810;SDS011;10566;52.928;10.522;2022-07-29T08:10:50;6.05;;;2.00;;
20810;SDS011;10566;52.928;10.522;2022-07-29T08:13:20;4.78;;;2.00;;
20810;SDS011;10566;52.928;10.522;2022-07-29T08:15:48;9.35;;;2.20;;
20810;SDS011;10566;52.928;10.522;2022-07-29T08:18:22;6.45;;;2.00;;
20810;SDS011;10566;52.928;10.522;2022-07-29T08:20:49;6.30;;;1.92;;
20810;SDS011;10566;52.928;10.522;2022-07-29T08:23:14;9.27;;;2.03;;
20810;SDS011;10566;52.928;10.522;2022-07-29T08:25:40;6.95;;;2.20;;
20810;SDS011;10566;52.928;10.522;2022-07-29T08:28:06;8.70;;;2.28;;
20810;SDS011;10566;52.928;10.522;2022-07-29T08:30:32;4.85;;;2.08;;
20810;SDS011;10566;52.928;10.522;2022-07-29T08:32:58;5.65;;;1.90;;
20810;SDS011;10566;52.928;10.522;2022-07-29T08:35:24;10.52;;;2.97;;
20810;SDS011;10566;52.928;10.522;2022-07-29T08:37:50;6.03;;;1.90;;
20810;SDS011;10566;52.928;10.522;2022-07-29T08:40:17;6.80;;;2.05;;
20810;SDS011;10566;52.928;10.522;2022-07-29T08:42:43;6.68;;;2.08;;
20810;SDS011;10566;52.928;10.522;2022-07-29T08:45:08;5.55;;;2.08;;
20810;SDS011;10566;52.928;10.522;2022-07-29T08:47:34;6.00;;;1.98;;
20810;SDS011;10566;52.928;10.522;2022-07-29T08:50:04;7.68;;;1.85;;
20810;SDS011;10566;52.928;10.522;2022-07-29T08:52:31;7.35;;;1.98;;
20810;SDS011;10566;52.928;10.522;2022-07-29T08:55:00;7.25;;;2.00;;
20810;SDS011;10566;52.928;10.522;2022-07-29T08:57:27;6.35;;;2.10;;
20810;SDS011;10566;52.928;10.522;2022-07-29T08:59:53;6.13;;;2.15;;
20810;SDS011;10566;52.928;10.522;2022-07-29T09:02:20;5.88;;;1.90;;
20810;SDS011;10566;52.928;10.522;2022-07-29T09:04:47;6.68;;;2.17;;
20810;SDS011;10566;52.928;10.522;2022-07-29T09:07:14;6.90;;;1.90;;
20810;SDS011;10566;52.928;10.522;2022-07-29T09:09:41;8.55;;;2.25;;
20810;SDS011;10566;52.928;10.522;2022-07-29T09:12:08;7.13;;;1.90;;
20810;SDS011;10566;52.928;10.522;2022-07-29T09:14:36;6.97;;;1.92;;
20810;SDS011;10566;52.928;10.522;2022-07-29T09:17:02;5.45;;;1.90;;
20810;SDS011;10566;52.928;10.522;2022-07-29T09:19:29;7.03;;;2.08;;
20810;SDS011;10566;52.928;10.522;2022-07-29T09:21:57;6.93;;;1.98;;
20810;SDS011;10566;52.928;10.522;2022-07-29T09:24:25;8.80;;;1.75;;
20810;SDS011;10566;52.928;10.522;2022-07-29T09:26:59;7.15;;;1.80;;
20810;SDS011;10566;52.928;10.522;2022-07-29T09:29:25;7.53;;;1.90;;
20810;SDS011;10566;52.928;10.522;2022-07-29T09:31:52;6.30;;;1.77;;
20810;SDS011;10566;52.928;10.522;2022-07-29T09:34:26;8.27;;;2.08;;
20810;SDS011;10566;52.928;10.522;2022-07-29T09:36:56;8.07;;;1.83;;
20810;SDS011;10566;52.928;10.522;2022-07-29T09:39:29;7.80;;;3.08;;
20810;SDS011;10566;52.928;10.522;2022-07-29T09:41:57;9.98;;;1.77;;
20810;SDS011;10566;52.928;10.522;2022-07-29T09:44:24;7.10;;;1.80;;
20810;SDS011;10566;52.928;10.522;2022-07-29T09:49:20;5.50;;;1.70;;
20810;SDS011;10566;52.928;10.522;2022-07-29T09:51:46;7.68;;;2.03;;
20810;SDS011;10566;52.928;10.522;2022-07-29T09:54:22;6.25;;;1.83;;
20810;SDS011;10566;52.928;10.522;2022-07-29T09:56:48;8.43;;;1.92;;
20810;SDS011;10566;52.928;10.522;2022-07-29T09:59:14;6.75;;;1.80;;
20810;SDS011;10566;52.928;10.522;2022-07-29T10:01:41;7.45;;;1.73;;
20810;SDS011;10566;52.928;10.522;2022-07-29T10:04:06;6.55;;;1.63;;
20810;SDS011;10566;52.928;10.522;2022-07-29T10:06:32;5.60;;;1.70;;
20810;SDS011;10566;52.928;10.522;2022-07-29T10:09:07;6.75;;;2.10;;
20810;SDS011;10566;52.928;10.522;2022-07-29T10:11:34;7.13;;;1.83;;
20810;SDS011;10566;52.928;10.522;2022-07-29T10:14:01;6.70;;;1.95;;
20810;SDS011;10566;52.928;10.522;2022-07-29T10:16:27;6.57;;;1.77;;
20810;SDS011;10566;52.928;10.522;2022-07-29T10:18:57;5.63;;;1.60;;
20810;SDS011;10566;52.928;10.522;2022-07-29T10:21:24;8.80;;;1.88;;
20810;SDS011;10566;52.928;10.522;2022-07-29T10:23:50;6.28;;;1.63;;
20810;SDS011;10566;52.928;10.522;2022-07-29T10:26:17;8.77;;;1.80;;
20810;SDS011;10566;52.928;10.522;2022-07-29T10:28:43;5.40;;;1.90;;
20810;SDS011;10566;52.928;10.522;2022-07-29T10:31:12;7.30;;;1.80;;
20810;SDS011;10566;52.928;10.522;2022-07-29T10:44:24;7.20;;;1.55;;
20810;SDS011;10566;52.928;10.522;2022-07-29T10:46:52;5.40;;;1.50;;
20810;SDS011;10566;52.928;10.522;2022-07-29T10:49:24;7.63;;;1.80;;
20810;SDS011;10566;52.928;10.522;2022-07-29T10:59:51;5.47;;;1.80;;
20810;SDS011;10566;52.928;10.522;2022-07-29T11:07:31;4.95;;;1.65;;
20810;SDS011;10566;52.928;10.522;2022-07-29T11:15:07;7.18;;;1.70;;
20810;SDS011;10566;52.928;10.522;2022-07-29T11:20:37;12.60;;;2.10;;
20810;SDS011;10566;52.928;10.522;2022-07-29T11:23:29;7.78;;;1.75;;
20810;SDS011;10566;52.928;10.522;2022-07-29T11:28:34;5.82;;;1.70;;
20810;SDS011;10566;52.928;10.522;2022-07-29T11:31:15;4.47;;;1.60;;
20810;SDS011;10566;52.928;10.522;2022-07-29T11:33:57;5.00;;;2.00;;
20810;SDS011;10566;52.928;10.522;2022-07-29T11:44:54;6.15;;;1.90;;
20810;SDS011;10566;52.928;10.522;2022-07-29T11:47:21;8.73;;;2.10;;
20810;SDS011;10566;52.928;10.522;2022-07-29T11:49:47;6.78;;;1.80;;
20810;SDS011;10566;52.928;10.522;2022-07-29T11:52:15;5.25;;;2.03;;
20810;SDS011;10566;52.928;10.522;2022-07-29T11:54:42;6.93;;;1.88;;
20810;SDS011;10566;52.928;10.522;2022-07-29T11:57:08;9.90;;;2.10;;
20810;SDS011;10566;52.928;10.522;2022-07-29T11:59:41;5.18;;;1.80;;
20810;SDS011;10566;52.928;10.522;2022-07-29T12:02:08;7.07;;;2.00;;
20810;SDS011;10566;52.928;10.522;2022-07-29T12:04:34;7.50;;;1.90;;
20810;SDS011;10566;52.928;10.522;2022-07-29T12:07:12;6.72;;;1.95;;
20810;SDS011;10566;52.928;10.522;2022-07-29T12:09:38;7.85;;;2.00;;
20810;SDS011;10566;52.928;10.522;2022-07-29T12:12:04;7.80;;;2.00;;
20810;SDS011;10566;52.928;10.522;2022-07-29T12:14:30;4.63;;;1.77;;
20810;SDS011;10566;52.928;10.522;2022-07-29T12:16:58;5.00;;;1.90;;
20810;SDS011;10566;52.928;10.522;2022-07-29T12:19:24;11.10;;;2.25;;
20810;SDS011;10566;52.928;10.522;2022-07-29T12:21:51;6.97;;;2.03;;
20810;SDS011;10566;52.928;10.522;2022-07-29T12:24:18;8.30;;;2.00;;
20810;SDS011;10566;52.928;10.522;2022-07-29T12:26:51;9.30;;;2.35;;
20810;SDS011;10566;52.928;10.522;2022-07-29T12:29:17;8.57;;;1.77;;
20810;SDS011;10566;52.928;10.522;2022-07-29T12:31:43;5.47;;;2.00;;
20810;SDS011;10566;52.928;10.522;2022-07-29T12:34:10;6.38;;;3.03;;
20810;SDS011;10566;52.928;10.522;2022-07-29T12:36:37;5.68;;;1.90;;
20810;SDS011;10566;52.928;10.522;2022-07-29T12:39:03;7.75;;;2.00;;
20810;SDS011;10566;52.928;10.522;2022-07-29T12:41:29;6.10;;;1.83;;
20810;SDS011;10566;52.928;10.522;2022-07-29T12:43:55;7.43;;;2.00;;
20810;SDS011;10566;52.928;10.522;2022-07-29T12:46:21;6.63;;;2.00;;
20810;SDS011;10566;52.928;10.522;2022-07-29T12:48:50;5.35;;;1.70;;
20810;SDS011;10566;52.928;10.522;2022-07-29T12:51:38;5.72;;;1.75;;
20810;SDS011;10566;52.928;10.522;2022-07-29T12:54:09;6.45;;;2.05;;
20810;SDS011;10566;52.928;10.522;2022-07-29T12:56:38;6.65;;;1.98;;
20810;SDS011;10566;52.928;10.522;2022-07-29T12:59:12;6.68;;;1.90;;
20810;SDS011;10566;52.928;10.522;2022-07-29T13:01:45;8.50;;;1.90;;
20810;SDS011;10566;52.928;10.522;2022-07-29T13:04:27;5.10;;;2.05;;
20810;SDS011;10566;52.928;10.522;2022-07-29T13:07:06;5.00;;;1.98;;
20810;SDS011;10566;52.928;10.522;2022-07-29T13:09:38;8.30;;;2.45;;
20810;SDS011;10566;52.928;10.522;2022-07-29T13:12:13;9.02;;;2.20;;
20810;SDS011;10566;52.928;10.522;2022-07-29T13:14:42;7.75;;;2.30;;
20810;SDS011;10566;52.928;10.522;2022-07-29T13:17:13;4.30;;;1.85;;
20810;SDS011;10566;52.928;10.522;2022-07-29T13:19:45;8.45;;;1.85;;
20810;SDS011;10566;52.928;10.522;2022-07-29T13:22:13;4.35;;;1.77;;
20810;SDS011;10566;52.928;10.522;2022-07-29T13:27:20;6.75;;;1.95;;
20810;SDS011;10566;52.928;10.522;2022-07-29T13:29:50;6.82;;;1.98;;
20810;SDS011;10566;52.928;10.522;2022-07-29T13:32:21;4.88;;;1.70;;
20810;SDS011;10566;52.928;10.522;2022-07-29T13:34:47;5.72;;;2.10;;
20810;SDS011;10566;52.928;10.522;2022-07-29T13:37:13;6.03;;;2.00;;
20810;SDS011;10566;52.928;10.522;2022-07-29T13:39:38;9.90;;;2.20;;
20810;SDS011;10566;52.928;10.522;2022-07-29T13:42:05;7.07;;;2.08;;
20810;SDS011;10566;52.928;10.522;2022-07-29T13:44:32;8.20;;;2.20;;
20810;SDS011;10566;52.928;10.522;2022-07-29T13:46:58;5.35;;;2.03;;
20810;SDS011;10566;52.928;10.522;2022-07-29T13:49:26;6.65;;;2.05;;
20810;SDS011;10566;52.928;10.522;2022-07-29T13:51:52;4.97;;;2.05;;
20810;SDS011;10566;52.928;10.522;2022-07-29T13:54:18;5.75;;;2.03;;
20810;SDS011;10566;52.928;10.522;2022-07-29T13:56:44;7.70;;;2.30;;
20810;SDS011;10566;52.928;10.522;2022-07-29T13:59:09;6.20;;;2.00;;
20810;SDS011;10566;52.928;10.522;2022-07-29T14:01:35;4.43;;;1.92;;
20810;SDS011;10566;52.928;10.522;2022-07-29T14:04:01;4.55;;;1.90;;
20810;SDS011;10566;52.928;10.522;2022-07-29T14:06:27;7.35;;;2.10;;
20810;SDS011;10566;52.928;10.522;2022-07-29T14:08:52;7.53;;;2.10;;
20810;SDS011;10566;52.928;10.522;2022-07-29T14:11:18;7.97;;;2.08;;
20810;SDS011;10566;52.928;10.522;2022-07-29T14:13:44;4.28;;;1.70;;
20810;SDS011;10566;52.928;10.522;2022-07-29T14:16:09;9.93;;;2.00;;
20810;SDS011;10566;52.928;10.522;2022-07-29T14:18:35;7.38;;;1.92;;
20810;SDS011;10566;52.928;10.522;2022-07-29T14:21:00;8.35;;;2.40;;
20810;SDS011;10566;52.928;10.522;2022-07-29T14:23:26;6.15;;;2.28;;
20810;SDS011;10566;52.928;10.522;2022-07-29T14:25:52;5.22;;;1.80;;
20810;SDS011;10566;52.928;10.522;2022-07-29T14:28:17;8.07;;;2.10;;
20810;SDS011;10566;52.928;10.522;2022-07-29T14:30:43;7.53;;;1.85;;
20810;SDS011;10566;52.928;10.522;2022-07-29T14:33:09;5.93;;;1.92;;
20810;SDS011;10566;52.928;10.522;2022-07-29T14:35:34;3.42;;;1.60;;
20810;SDS011;10566;52.928;10.522;2022-07-29T14:38:00;4.78;;;1.98;;
20810;SDS011;10566;52.928;10.522;2022-07-29T14:40:25;5.93;;;1.95;;
20810;SDS011;10566;52.928;10.522;2022-07-29T14:42:51;6.55;;;2.05;;
20810;SDS011;10566;52.928;10.522;2022-07-29T14:45:17;8.05;;;2.10;;
20810;SDS011;10566;52.928;10.522;2022-07-29T14:47:42;6.82;;;1.77;;
20810;SDS011;10566;52.928;10.522;2022-07-29T14:50:08;7.32;;;2.00;;
20810;SDS011;10566;52.928;10.522;2022-07-29T14:52:34;6.22;;;2.08;;
20810;SDS011;10566;52.928;10.522;2022-07-29T14:55:00;7.10;;;2.35;;
20810;SDS011;10566;52.928;10.522;2022-07-29T14:57:25;8.32;;;2.00;;
20810;SDS011;10566;52.928;10.522;2022-07-29T14:59:51;10.38;;;2.22;;
20810;SDS011;10566;52.928;10.522;2022-07-29T15:02:16;5.57;;;2.05;;
20810;SDS011;10566;52.928;10.522;2022-07-29T15:04:42;6.30;;;2.00;;
20810;SDS011;10566;52.928;10.522;2022-07-29T15:07:09;4.38;;;1.80;;
20810;SDS011;10566;52.928;10.522;2022-07-29T15:09:35;7.07;;;2.28;;
20810;SDS011;10566;52.928;10.522;2022-07-29T15:12:00;13.15;;;6.20;;
20810;SDS011;10566;52.928;10.522;2022-07-29T15:14:27;7.88;;;3.83;;
20810;SDS011;10566;52.928;10.522;2022-07-29T15:16:53;8.75;;;2.30;;
20810;SDS011;10566;52.928;10.522;2022-07-29T15:19:19;6.03;;;1.85;;
20810;SDS011;10566;52.928;10.522;2022-07-29T15:21:44;7.15;;;2.00;;
20810;SDS011;10566;52.928;10.522;2022-07-29T15:24:10;6.72;;;2.00;;
20810;SDS011;10566;52.928;10.522;2022-07-29T15:26:36;7.03;;;1.80;;
20810;SDS011;10566;52.928;10.522;2022-07-29T15:29:01;6.72;;;2.10;;